Time;durP1;ratioP1;P1;durP2;ratioP2;P2;SDS_P1;SDS_P2;PMS_P1;PMS_P2;Temp;Humidity;BMP_temperature;BMP_pressure;BME280_temperature;BME280_humidity;BME280_pressure;Samples;Min_cycle;Max_cycle;Signal;HPM_P1;HPM_P2
2024/04/13 00:02:45;;;;;;;;;;;18.80;52.40;;;;;;23030789;25;19964;-59
2024/04/13 00:12:46;;;;;;;;;;;18.40;54.30;;;;;;23028297;25;19927;-57
2024/04/13 00:22:47;;;;;;;;;;;18.10;54.90;;;;;;23028063;25;19926;-57
2024/04/13 00:32:48;;;;;;;;;;;18.00;55.80;;;;;;23026094;25;19931;-57
2024/04/13 00:42:51;;;;;;;;;;;17.70;56.80;;;;;;23027216;25;19927;-57
2024/04/13 00:52:52;;;;;;;;;;;17.60;58.00;;;;;;23024778;25;20356;-56
2024/04/13 01:02:53;;;;;;;;;;;17.50;58.60;;;;;;23025186;25;20285;-58
2024/04/13 01:12:56;;;;;;;;;;;17.40;59.00;;;;;;23024539;25;19927;-56
2024/04/13 01:23:02;;;;;;;;;;;17.40;59.30;;;;;;23025583;25;20325;-57
2024/04/13 01:33:04;;;;;;;;;;;17.20;59.80;;;;;;23023122;25;19927;-57
2024/04/13 01:43:05;;;;;;;;;;;17.10;60.30;;;;;;23027515;25;20354;-57
2024/04/13 01:53:06;;;;;;;;;;;17.00;60.30;;;;;;23039028;25;20019;-57
2024/04/13 02:03:07;;;;;;;;;;;16.90;60.80;;;;;;23038128;25;19926;-56
2024/04/13 02:13:09;;;;;;;;;;;16.70;61.20;;;;;;23035015;25;20368;-57
2024/04/13 02:23:11;;;;;;;;;;;16.60;61.60;;;;;;23036283;25;19995;-56
2024/04/13 02:33:12;;;;;;;;;;;16.60;61.60;;;;;;23036140;25;19930;-57
2024/04/13 02:43:13;;;;;;;;;;;16.40;61.70;;;;;;23034589;25;20411;-56
2024/04/13 02:53:14;;;;;;;;;;;16.30;61.90;;;;;;23032217;25;19934;-57
2024/04/13 03:03:16;;;;;;;;;;;16.20;62.00;;;;;;23033212;25;19934;-57
2024/04/13 03:13:17;;;;;;;;;;;16.20;62.30;;;;;;23032804;25;19937;-57
2024/04/13 03:23:19;;;;;;;;;;;16.20;62.50;;;;;;23034036;25;19927;-57
2024/04/13 03:33:21;;;;;;;;;;;16.00;62.40;;;;;;23031602;25;20281;-57
2024/04/13 03:43:22;;;;;;;;;;;15.70;62.80;;;;;;23032200;25;20304;-57
2024/04/13 03:53:23;;;;;;;;;;;15.70;62.20;;;;;;23030605;25;19934;-56
2024/04/13 04:03:25;;;;;;;;;;;15.30;62.80;;;;;;23031200;25;20046;-57
2024/04/13 04:13:26;;;;;;;;;;;15.00;64.00;;;;;;23029532;25;19963;-56
2024/04/13 04:23:27;;;;;;;;;;;14.90;64.70;;;;;;23028246;25;19934;-57
2024/04/13 04:33:28;;;;;;;;;;;14.90;65.30;;;;;;23026092;25;20320;-57
2024/04/13 04:43:29;;;;;;;;;;;14.80;65.40;;;;;;23025017;25;19927;-56
2024/04/13 04:53:30;;;;;;;;;;;15.70;61.70;;;;;;23025435;25;19927;-57
2024/04/13 05:03:31;;;;;;;;;;;15.20;63.40;;;;;;23022997;25;19927;-58
2024/04/13 05:13:32;;;;;;;;;;;14.60;65.20;;;;;;23023719;25;19934;-57
2024/04/13 05:23:33;;;;;;;;;;;14.50;65.10;;;;;;23035334;25;19927;-57
2024/04/13 05:33:35;;;;;;;;;;;14.40;65.00;;;;;;23037650;25;19926;-57
2024/04/13 05:43:36;;;;;;;;;;;14.50;64.70;;;;;;23036834;25;19926;-56
2024/04/13 05:53:38;;;;;;;;;;;14.40;64.70;;;;;;23039740;25;19927;-57
2024/04/13 06:03:39;;;;;;;;;;;14.20;65.40;;;;;;23039757;25;19927;-56
2024/04/13 06:13:41;;;;;;;;;;;14.10;65.90;;;;;;23039302;25;19955;-57
2024/04/13 06:23:43;;;;;;;;;;;14.10;65.90;;;;;;23036494;25;19927;-57
2024/04/13 06:33:44;;;;;;;;;;;14.20;65.90;;;;;;23034599;25;20360;-56
2024/04/13 06:43:45;;;;;;;;;;;14.40;65.30;;;;;;23035581;25;19975;-57
2024/04/13 06:53:46;;;;;;;;;;;14.60;64.90;;;;;;23036075;25;19937;-57
2024/04/13 07:03:48;;;;;;;;;;;;;;;;;;23033025;25;20365;-56
2024/04/13 07:13:51;;;;;;;;;;;;;;;;;;23032503;25;19938;-57
2024/04/13 07:23:52;;;;;;;;;;;;;;;;;;23034903;25;19931;-57
2024/04/13 07:33:54;;;;;;;;;;;;;;;;;;23032820;25;19975;-57
2024/04/13 07:43:55;;;;;;;;;;;;;;;;;;23030281;25;19972;-57
2024/04/13 07:53:56;;;;;;;;;;;;;;;;;;23029056;25;19934;-56
2024/04/13 08:03:57;;;;;;;;;;;;;;;;;;23025838;25;19927;-56
2024/04/13 08:13:59;;;;;;;;;;;;;;;;;;22875268;26;19996;-57
2024/04/13 08:24:02;;;;;;;;;;;;;;;;;;22872708;26;20227;-56
2024/04/13 08:34:03;;;;;;;;;;;;;;;;;;22871862;26;20348;-57
2024/04/13 08:44:04;;;;;;;;;;;;;;;;;;22870580;26;19999;-57
2024/04/13 08:54:06;;;;;;;;;;;;;;;;;;22874849;26;19928;-57
2024/04/13 09:04:07;;;;;;;;;;;;;;;;;;22884130;26;19927;-58
2024/04/13 09:14:11;;;;;;;;;;;;;;;;;;22881628;26;20007;-56
2024/04/13 09:24:14;;;;;;;;;;;;;;;;;;22883172;26;20396;-57
2024/04/13 09:34:15;;;;;;;;;;;;;;;;;;22883272;26;19934;-57
2024/04/13 09:44:16;;;;;;;;;;;;;;;;;;22882193;26;19960;-58
2024/04/13 09:54:18;;;;;;;;;;;;;;;;;;22881381;26;19942;-57
2024/04/13 10:04:20;;;;;;;;;;;;;;;;;;22880139;26;19928;-58
2024/04/13 10:14:22;;;;;;;;;;;;;;;;;;22880524;26;19927;-57
2024/04/13 10:24:24;;;;;;;;;;;;;;;;;;22880804;26;19932;-57
2024/04/13 10:34:25;;;;;;;;;;;;;;;;;;22880589;26;19938;-57
2024/04/13 10:44:27;;;;;;;;;;;;;;;;;;22879592;26;20349;-57
2024/04/13 10:54:28;;;;;;;;;;;;;;;;;;22878821;26;19927;-57
2024/04/13 11:04:30;;;;;;;;;;;;;;;;;;22878646;26;19935;-56
2024/04/13 11:14:32;;;;;;;;;;;;;;;;;;22877548;26;19927;-57
2024/04/13 11:24:33;;;;;;;;;;;;;;;;;;22877914;26;20417;-56
2024/04/13 11:34:35;;;;;;;;;;;;;;;;;;22876756;26;19928;-57
2024/04/13 11:44:37;;;;;;;;;;;;;;;;;;22876485;26;19955;-57
2024/04/13 11:54:38;;;;;;;;;;;;;;;;;;22875368;26;19938;-56
2024/04/13 12:04:40;;;;;;;;;;;;;;;;;;22874420;26;20242;-57
2024/04/13 12:14:41;;;;;;;;;;;;;;;;;;22874947;26;19935;-57
2024/04/13 12:24:43;;;;;;;;;;;;;;;;;;22873895;26;20005;-57
2024/04/13 12:34:44;;;;;;;;;;;;;;;;;;22871106;26;20042;-56
2024/04/13 12:44:45;;;;;;;;;;;;;;;;;;22872496;26;19927;-57
2024/04/13 12:54:47;;;;;;;;;;;;;;;;;;22871452;26;19935;-57
2024/04/13 13:04:48;;;;;;;;;;;;;;;;;;22870095;26;19995;-57
2024/04/13 13:14:51;;;;;;;;;;;;;;;;;;22868592;26;20024;-57
2024/04/13 13:24:52;;;;;;;;;;;25.00;28.70;;;;;;22867283;26;19943;-58
2024/04/13 13:34:53;;;;;;;;;;;24.80;28.70;;;;;;22867544;26;20317;-57
2024/04/13 13:44:55;;;;;;;;;;;24.00;29.70;;;;;;22879136;26;20245;-57
2024/04/13 13:54:58;;;;;;;;;;;24.20;27.70;;;;;;22881350;26;20106;-57
2024/04/13 14:04:59;;;;;;;;;;;24.20;28.50;;;;;;22880654;26;19931;-57
2024/04/13 14:15:02;;;;;;;;;;;24.30;28.70;;;;;;22882075;26;19936;-57
2024/04/13 14:25:03;;;;;;;;;;;24.50;27.80;;;;;;22881348;26;20069;-57
2024/04/13 14:35:06;;;;;;;;;;;24.70;27.10;;;;;;22880286;26;19935;-57
2024/04/13 14:45:07;;;;;;;;;;;24.80;25.90;;;;;;22879140;26;19938;-58
2024/04/13 14:55:09;;;;;;;;;;;24.90;25.90;;;;;;22877705;26;19928;-57
2024/04/13 15:05:10;;;;;;;;;;;24.90;25.90;;;;;;22878484;26;20236;-58
2024/04/13 15:15:12;;;;;;;;;;;25.00;26.10;;;;;;22876433;26;19927;-58
2024/04/13 15:25:13;;;;;;;;;;;25.10;25.30;;;;;;22876255;26;20340;-59
2024/04/13 15:35:16;;;;;;;;;;;25.10;24.20;;;;;;22875489;26;20265;-57
2024/04/13 15:45:17;;;;;;;;;;;25.20;24.50;;;;;;22874959;26;20357;-57
2024/04/13 15:55:18;;;;;;;;;;;25.10;23.30;;;;;;22874845;26;20327;-59
2024/04/13 16:05:19;;;;;;;;;;;25.10;23.40;;;;;;22873998;26;19928;-57
2024/04/13 16:15:20;;;;;;;;;;;25.10;23.50;;;;;;22873911;25;19928;-57
2024/04/13 16:25:21;;;;;;;;;;;25.10;23.10;;;;;;22873026;26;19939;-57
2024/04/13 16:35:22;;;;;;;;;;;25.10;23.20;;;;;;22873651;26;19927;-57
2024/04/13 16:45:23;;;;;;;;;;;25.10;24.00;;;;;;22873045;25;19928;-58
2024/04/13 16:55:24;;;;;;;;;;;25.00;23.80;;;;;;22870583;26;20369;-58
2024/04/13 17:05:26;;;;;;;;;;;25.10;24.10;;;;;;22868203;26;20384;-58
2024/04/13 17:15:27;;;;;;;;;;;25.10;24.00;;;;;;22875435;26;20309;-58
2024/04/13 17:25:29;;;;;;;;;;;25.10;24.20;;;;;;22883253;26;19944;-57
2024/04/13 17:35:31;;;;;;;;;;;25.00;24.80;;;;;;22883151;26;19939;-57
2024/04/13 17:45:32;;;;;;;;;;;25.00;24.30;;;;;;22883715;26;19928;-57
2024/04/13 17:55:33;;;;;;;;;;;24.90;24.30;;;;;;22883474;26;19934;-58
2024/04/13 18:05:35;;;;;;;;;;;24.70;26.50;;;;;;22882480;26;19931;-58
2024/04/13 18:15:36;;;;;;;;;;;24.50;27.40;;;;;;22880256;25;20348;-57
2024/04/13 18:25:38;;;;;;;;;;;24.30;28.70;;;;;;22877334;26;19967;-57
2024/04/13 18:35:40;;;;;;;;;;;24.20;30.00;;;;;;22958673;25;19939;-57
2024/04/13 18:45:41;;;;;;;;;;;24.00;30.30;;;;;;23022212;25;20016;-57
2024/04/13 18:55:43;;;;;;;;;;;23.80;31.50;;;;;;23032451;25;20015;-56
2024/04/13 19:05:45;;;;;;;;;;;23.60;32.40;;;;;;23031621;25;20095;-56
2024/04/13 19:15:47;;;;;;;;;;;23.40;33.10;;;;;;23031165;25;19926;-56
2024/04/13 19:25:57;;;;;;;;;;;23.30;33.50;;;;;;23031265;25;19937;-57
2024/04/13 19:35:59;;;;;;;;;;;23.10;34.30;;;;;;23030248;25;20380;-59
2024/04/13 19:46:00;;;;;;;;;;;22.90;34.70;;;;;;23030765;25;19938;-57
2024/04/13 19:56:01;;;;;;;;;;;22.70;35.50;;;;;;23031018;25;20354;-59
2024/04/13 20:06:03;;;;;;;;;;;22.60;35.80;;;;;;23027903;25;19995;-57
2024/04/13 20:26:26;;;;;;;;;;;22.20;36.70;;;;;;23030425;25;20357;-58
2024/04/13 20:36:28;;;;;;;;;;;22.10;37.70;;;;;;23028361;25;20396;-58
2024/04/13 20:46:30;;;;;;;;;;;22.00;37.70;;;;;;23025798;25;19988;-57
2024/04/13 20:56:31;;;;;;;;;;;21.80;38.20;;;;;;23040239;25;19940;-56
2024/04/13 21:06:32;;;;;;;;;;;21.70;38.90;;;;;;23040135;25;19927;-59
2024/04/13 21:16:33;;;;;;;;;;;21.60;39.50;;;;;;23040326;25;20328;-56
2024/04/13 21:26:34;;;;;;;;;;;21.50;39.70;;;;;;23039645;25;19926;-58
2024/04/13 21:36:35;;;;;;;;;;;21.40;39.90;;;;;;23040636;25;19994;-57
2024/04/13 21:46:36;;;;;;;;;;;21.20;41.70;;;;;;23040316;25;19927;-57
2024/04/13 21:56:37;;;;;;;;;;;21.10;41.30;;;;;;23038783;25;19926;-58
2024/04/13 22:06:38;;;;;;;;;;;20.90;42.40;;;;;;23037619;25;19927;-57
2024/04/13 22:16:39;;;;;;;;;;;20.80;43.10;;;;;;23036809;25;20074;-57
2024/04/13 22:26:40;;;;;;;;;;;20.70;43.40;;;;;;23036615;25;19934;-57
2024/04/13 22:36:41;;;;;;;;;;;20.70;43.70;;;;;;23035973;25;19938;-57
2024/04/13 22:46:43;;;;;;;;;;;20.60;43.60;;;;;;23034809;25;19959;-57
2024/04/13 22:56:44;;;;;;;;;;;20.50;44.00;;;;;;23034841;25;20020;-57
2024/04/13 23:06:46;;;;;;;;;;;20.30;44.90;;;;;;23033548;25;20371;-56
2024/04/13 23:16:47;;;;;;;;;;;20.10;46.50;;;;;;23032597;25;19927;-56
2024/04/13 23:26:48;;;;;;;;;;;19.70;48.60;;;;;;23032799;25;19963;-57
2024/04/13 23:36:49;;;;;;;;;;;19.30;49.20;;;;;;23031235;25;19933;-57
2024/04/13 23:46:50;;;;;;;;;;;19.00;50.00;;;;;;23030824;25;19935;-57
2024/04/13 23:56:51;;;;;;;;;;;18.90;51.10;;;;;;23030236;25;19927;-56
